createdAt,value
2023-02-09T00:03:09.333Z,25.60
2023-02-09T00:08:11.314Z,25.10
2023-02-09T00:13:25.104Z,24.40
2023-02-09T00:18:28.553Z,27.50
2023-02-09T00:23:31.625Z,28.77
2023-02-09T00:28:33.940Z,23.60
2023-02-09T00:33:36.460Z,23.70
2023-02-09T00:38:38.992Z,24.20
2023-02-09T00:43:41.297Z,20.37
2023-02-09T00:48:43.070Z,24.40
2023-02-09T00:53:46.050Z,25.67
2023-02-09T00:58:47.871Z,25.60
2023-02-09T01:03:49.647Z,33.43
2023-02-09T01:08:51.505Z,26.90
2023-02-09T01:13:56.038Z,27.57
2023-02-09T01:19:00.889Z,27.43
2023-02-09T01:24:04.364Z,24.43
2023-02-09T01:29:06.182Z,24.40
2023-02-09T01:34:08.235Z,23.00
2023-02-09T01:39:11.966Z,23.93
2023-02-09T01:44:16.848Z,27.40
2023-02-09T01:49:26.278Z,25.13
2023-02-09T01:55:02.263Z,27.27
2023-02-09T02:00:10.712Z,25.33
2023-02-09T02:05:20.226Z,25.10
2023-02-09T02:10:22.166Z,23.67
2023-02-09T02:15:42.855Z,25.93
2023-02-09T02:21:15.621Z,26.63
2023-02-09T02:26:23.583Z,26.80
2023-02-09T02:32:03.216Z,22.73
2023-02-09T02:37:37.713Z,30.40
2023-02-09T02:43:17.775Z,28.97
2023-02-09T02:48:52.942Z,28.23
2023-02-09T02:53:59.888Z,26.97
2023-02-09T02:59:04.843Z,26.80
2023-02-09T03:04:08.190Z,28.60
2023-02-09T03:09:10.176Z,26.10
2023-02-09T03:14:17.845Z,31.97
2023-02-09T03:19:31.597Z,33.50
2023-02-09T03:24:48.716Z,31.93
2023-02-09T03:29:55.061Z,27.07
2023-02-09T03:34:57.867Z,25.40
2023-02-09T03:39:59.671Z,26.27
2023-02-09T03:45:01.554Z,23.60
2023-02-09T03:50:06.733Z,31.37
2023-02-09T03:55:08.721Z,23.03
2023-02-09T04:00:11.373Z,30.20
2023-02-09T04:17:18.164Z,28.03
2023-02-09T04:22:20.025Z,27.43
2023-02-09T04:33:30.158Z,22.60
2023-02-09T04:44:28.072Z,31.20
2023-02-09T04:55:08.431Z,30.07
2023-02-09T05:00:11.154Z,25.37
2023-02-09T07:05:05.360Z,36.87
2023-02-09T08:49:41.649Z,27.20
2023-02-09T09:00:25.347Z,28.17
2023-02-09T10:17:07.621Z,31.87
2023-02-09T10:22:52.387Z,30.00
2023-02-09T10:27:55.711Z,34.20
2023-02-09T10:33:20.550Z,26.17
2023-02-09T10:38:28.907Z,35.13
2023-02-09T10:43:36.033Z,34.80
2023-02-09T10:48:50.753Z,30.87
2023-02-09T11:12:35.169Z,32.43
2023-02-09T11:18:26.957Z,37.53
2023-02-09T11:29:41.899Z,24.90
2023-02-09T11:35:14.615Z,30.97
2023-02-09T11:40:44.909Z,25.47
2023-02-09T11:46:02.768Z,26.80
2023-02-09T11:51:31.755Z,27.60
2023-02-09T11:56:42.798Z,29.60
2023-02-09T12:15:12.952Z,30.00
2023-02-09T12:20:31.028Z,26.47
2023-02-09T12:25:53.256Z,30.20
2023-02-09T12:31:00.769Z,21.80
2023-02-09T12:36:18.288Z,28.00
2023-02-09T12:41:35.086Z,20.47
2023-02-09T12:46:44.340Z,31.03
2023-02-09T15:38:10.998Z,24.77
2023-02-09T16:00:43.960Z,31.37
2023-02-09T16:11:46.911Z,29.27
2023-02-09T16:17:06.195Z,26.93
2023-02-09T16:22:12.040Z,24.27
2023-02-09T18:09:33.222Z,32.13
2023-02-09T18:15:08.496Z,37.50
2023-02-09T18:31:37.839Z,37.20
2023-02-09T18:36:41.159Z,27.57
2023-02-09T18:53:26.255Z,28.60
2023-02-09T18:58:28.843Z,37.93
2023-02-09T19:03:31.072Z,29.20
2023-02-09T19:08:32.906Z,35.33
2023-02-09T19:13:35.512Z,40.30
2023-02-09T19:18:38.360Z,32.17
2023-02-09T19:23:40.363Z,31.30
2023-02-09T19:28:42.268Z,42.17
2023-02-09T19:33:44.199Z,34.53
2023-02-09T19:38:46.128Z,29.90
2023-02-09T19:43:50.624Z,33.67
2023-02-09T19:48:53.893Z,35.07
2023-02-09T19:53:55.903Z,36.23
2023-02-09T19:58:57.785Z,34.40
2023-02-09T20:03:59.603Z,38.83
2023-02-09T20:09:05.227Z,32.43
2023-02-09T20:14:07.174Z,44.97
2023-02-09T20:19:09.324Z,36.40
2023-02-09T20:24:13.476Z,42.03
2023-02-09T20:29:16.801Z,49.53
2023-02-09T20:34:19.068Z,40.93
2023-02-09T20:39:23.421Z,36.07
2023-02-09T20:44:43.933Z,37.27
2023-02-09T20:49:48.608Z,48.47
2023-02-09T20:54:50.538Z,47.10
2023-02-09T20:59:52.405Z,40.90
2023-02-09T21:04:57.685Z,33.20
2023-02-09T21:09:59.855Z,39.10
2023-02-09T21:15:01.723Z,37.10
2023-02-09T21:20:03.899Z,34.13
2023-02-09T21:25:06.081Z,46.63
2023-02-09T21:30:08.847Z,43.83
2023-02-09T21:35:10.964Z,40.80
2023-02-09T21:40:13.947Z,36.73
2023-02-09T21:45:15.979Z,39.70
2023-02-09T21:50:18.019Z,47.23
2023-02-09T21:55:20.346Z,50.00
2023-02-09T22:00:22.286Z,37.33
2023-02-09T22:05:24.530Z,35.30
2023-02-09T22:10:26.482Z,40.67
2023-02-09T22:15:28.340Z,38.20
2023-02-09T22:20:30.207Z,31.47
2023-02-09T22:25:32.131Z,28.47
2023-02-09T22:30:34.191Z,37.43
2023-02-09T22:35:41.077Z,33.93
2023-02-09T22:40:43.156Z,39.53
2023-02-09T22:45:45.401Z,53.87
2023-02-09T22:50:47.575Z,53.63
2023-02-09T22:55:49.787Z,48.03
2023-02-09T23:00:51.731Z,44.70
2023-02-09T23:05:53.851Z,30.17
2023-02-09T23:11:08.543Z,35.30
2023-02-09T23:16:20.140Z,36.67
2023-02-09T23:21:24.500Z,43.27
2023-02-09T23:26:27.335Z,44.37
2023-02-09T23:31:29.724Z,45.57
2023-02-09T23:36:33.996Z,44.97
2023-02-09T23:41:35.969Z,38.90
2023-02-09T23:46:38.739Z,36.30
2023-02-09T23:51:40.700Z,30.93
2023-02-09T23:56:42.597Z,36.00
